createdAt,value
2022-10-28T00:03:10.723Z,56.82
2022-10-28T00:08:13.330Z,56.79
2022-10-28T00:13:15.149Z,56.67
2022-10-28T00:18:16.698Z,56.92
2022-10-28T00:23:18.313Z,56.99
2022-10-28T00:28:20.795Z,56.93
2022-10-28T00:33:22.426Z,56.87
2022-10-28T00:38:24.610Z,56.84
2022-10-28T00:43:39.485Z,56.99
2022-10-28T00:48:45.567Z,56.86
2022-10-28T00:53:48.430Z,56.78
2022-10-28T00:58:50.654Z,56.98
2022-10-28T01:03:54.373Z,56.95
2022-10-28T01:08:59.888Z,57.07
2022-10-28T01:14:25.043Z,56.83
2022-10-28T01:20:04.339Z,56.96
2022-10-28T01:25:47.638Z,56.96
2022-10-28T01:31:30.038Z,56.79
2022-10-28T01:36:47.375Z,57.09
2022-10-28T01:41:56.783Z,57.28
2022-10-28T01:47:10.818Z,57.07
2022-10-28T01:52:18.393Z,57.00
2022-10-28T01:57:23.922Z,57.19
2022-10-28T02:02:26.719Z,57.37
2022-10-28T02:07:28.353Z,56.86
2022-10-28T02:12:35.512Z,57.16
2022-10-28T02:18:11.885Z,57.01
2022-10-28T02:23:51.386Z,57.05
2022-10-28T02:29:05.942Z,57.18
2022-10-28T02:34:12.904Z,57.34
2022-10-28T02:39:17.306Z,57.04
2022-10-28T02:44:26.538Z,57.14
2022-10-28T02:49:31.083Z,57.19
2022-10-28T02:54:51.149Z,57.20
2022-10-28T03:00:06.551Z,57.34
2022-10-28T03:05:08.645Z,57.27
2022-10-28T03:10:10.458Z,57.26
2022-10-28T03:15:12.101Z,57.43
2022-10-28T03:20:13.810Z,57.65
2022-10-28T03:25:15.392Z,57.42
2022-10-28T03:30:18.536Z,57.76
2022-10-28T03:35:20.643Z,57.72
2022-10-28T03:40:22.263Z,57.82
2022-10-28T03:45:24.796Z,57.74
2022-10-28T03:50:26.925Z,57.69
2022-10-28T03:55:29.784Z,57.67
2022-10-28T04:00:32.261Z,57.58
2022-10-28T04:05:36.015Z,57.83
2022-10-28T04:10:37.857Z,57.74
2022-10-28T04:15:39.911Z,57.45
2022-10-28T04:20:41.521Z,57.43
2022-10-28T04:25:43.325Z,57.74
2022-10-28T04:30:48.003Z,57.58
2022-10-28T04:35:49.665Z,57.46
2022-10-28T04:40:51.363Z,57.52
2022-10-28T04:45:53.006Z,57.59
2022-10-28T04:50:57.383Z,57.66
2022-10-28T04:56:00.548Z,57.71
2022-10-28T05:01:09.445Z,57.63
2022-10-28T05:06:11.153Z,57.72
2022-10-28T05:11:13.626Z,57.88
2022-10-28T05:16:15.496Z,57.80
2022-10-28T05:21:17.091Z,57.92
2022-10-28T05:26:19.166Z,57.72
2022-10-28T05:31:20.982Z,57.73
2022-10-28T05:36:22.816Z,57.54
2022-10-28T05:41:25.449Z,57.61
2022-10-28T05:46:27.362Z,57.55
2022-10-28T05:51:29.177Z,57.49
2022-10-28T05:56:31.063Z,57.72
2022-10-28T06:01:32.718Z,57.62
2022-10-28T06:06:34.807Z,57.49
2022-10-28T06:11:35.072Z,57.56
2022-10-28T06:16:37.773Z,57.64
2022-10-28T06:21:40.050Z,57.97
2022-10-28T06:26:42.858Z,57.82
2022-10-28T06:31:44.716Z,57.86
2022-10-28T06:36:47.478Z,57.91
2022-10-28T06:41:49.132Z,58.09
2022-10-28T06:46:52.519Z,58.20
2022-10-28T06:51:54.441Z,58.03
2022-10-28T06:56:56.432Z,58.11
2022-10-28T07:01:59.407Z,58.29
2022-10-28T07:07:01.877Z,58.47
2022-10-28T07:12:05.065Z,58.32
2022-10-28T07:17:07.409Z,58.28
2022-10-28T07:22:09.009Z,58.40
2022-10-28T07:27:10.818Z,58.31
2022-10-28T07:32:12.896Z,58.26
2022-10-28T07:37:15.026Z,58.09
2022-10-28T07:42:16.843Z,58.42
2022-10-28T07:47:19.715Z,58.44
2022-10-28T07:52:21.535Z,58.64
2022-10-28T07:57:23.565Z,58.56
2022-10-28T08:02:26.115Z,58.52
2022-10-28T08:07:28.372Z,58.46
2022-10-28T08:12:30.788Z,58.56
2022-10-28T08:17:32.397Z,58.54
2022-10-28T08:22:34.062Z,58.66
2022-10-28T08:27:36.230Z,58.71
2022-10-28T08:32:38.020Z,58.46
2022-10-28T08:37:39.624Z,58.69
2022-10-28T08:42:52.167Z,58.42
2022-10-28T08:48:09.327Z,58.50
2022-10-28T08:53:19.824Z,58.21
2022-10-28T08:58:31.102Z,58.17
2022-10-28T09:03:39.237Z,58.02
2022-10-28T09:08:44.292Z,57.73
2022-10-28T09:14:13.988Z,57.99
2022-10-28T09:19:40.290Z,57.88
2022-10-28T09:25:02.776Z,57.75
2022-10-28T09:30:16.874Z,57.95
2022-10-28T09:35:23.634Z,57.72
2022-10-28T09:40:29.756Z,57.71
2022-10-28T09:45:36.264Z,57.58
2022-10-28T09:50:38.673Z,57.37
2022-10-28T09:55:40.451Z,57.30
2022-10-28T10:00:42.257Z,57.23
2022-10-28T10:05:50.603Z,57.46
2022-10-28T10:11:09.969Z,57.47
2022-10-28T10:16:18.186Z,57.06
2022-10-28T10:21:46.902Z,56.76
2022-10-28T10:26:48.704Z,56.64
2022-10-28T10:32:20.067Z,56.43
2022-10-28T10:37:22.827Z,56.25
2022-10-28T10:42:25.626Z,56.07
2022-10-28T10:47:27.619Z,56.02
2022-10-28T10:52:29.716Z,55.68
2022-10-28T10:57:32.840Z,55.12
2022-10-28T11:02:42.889Z,54.78
2022-10-28T11:07:48.708Z,54.74
2022-10-28T11:12:56.591Z,54.77
2022-10-28T11:18:17.200Z,54.57
2022-10-28T11:23:42.209Z,53.98
2022-10-28T11:29:14.019Z,53.60
2022-10-28T11:34:49.731Z,53.21
2022-10-28T11:40:03.626Z,53.05
2022-10-28T11:45:08.458Z,52.68
2022-10-28T11:55:44.266Z,52.53
2022-10-28T12:01:01.143Z,52.28
2022-10-28T12:06:12.450Z,52.03
2022-10-28T12:11:26.505Z,51.77
2022-10-28T12:16:51.978Z,51.39
2022-10-28T12:22:39.658Z,51.56
2022-10-28T12:27:45.161Z,51.24
2022-10-28T12:32:50.241Z,51.13
2022-10-28T12:37:59.216Z,51.00
2022-10-28T12:43:16.289Z,51.07
2022-10-28T12:48:42.638Z,50.86
2022-10-28T12:54:00.450Z,50.79
2022-10-28T12:59:14.873Z,50.94
2022-10-28T13:04:17.102Z,50.38
2022-10-28T13:09:48.332Z,50.21
2022-10-28T13:15:18.884Z,49.88
2022-10-28T13:20:26.316Z,49.92
2022-10-28T13:25:43.039Z,49.88
2022-10-28T13:30:57.238Z,49.28
2022-10-28T13:36:31.575Z,49.29
2022-10-28T13:41:44.690Z,49.14
2022-10-28T13:47:25.611Z,49.25
2022-10-28T13:52:27.225Z,49.03
2022-10-28T13:57:36.004Z,49.18
2022-10-28T14:03:04.802Z,49.46
2022-10-28T14:08:18.007Z,49.65
2022-10-28T14:13:22.544Z,49.67
2022-10-28T14:24:07.127Z,49.84
2022-10-28T14:29:27.524Z,49.74
2022-10-28T14:34:39.484Z,49.63
2022-10-28T14:39:50.366Z,49.72
2022-10-28T14:45:31.886Z,49.78
2022-10-28T14:50:42.541Z,49.90
2022-10-28T14:55:52.383Z,50.09
2022-10-28T15:01:04.360Z,49.57
2022-10-28T15:06:31.078Z,49.63
2022-10-28T15:11:34.037Z,49.73
2022-10-28T15:16:35.899Z,49.60
2022-10-28T15:21:37.793Z,49.75
2022-10-28T15:26:39.684Z,49.81
2022-10-28T15:32:04.810Z,49.76
2022-10-28T15:37:07.172Z,50.06
2022-10-28T15:42:47.372Z,49.98
2022-10-28T15:47:49.214Z,50.16
2022-10-28T15:52:54.300Z,50.04
2022-10-28T15:58:23.896Z,50.18
2022-10-28T16:03:27.148Z,50.58
2022-10-28T16:08:32.737Z,50.37
2022-10-28T16:13:38.301Z,50.87
2022-10-28T16:18:46.573Z,50.67
2022-10-28T16:23:52.520Z,50.62
2022-10-28T16:28:54.920Z,50.93
2022-10-28T16:33:58.479Z,51.24
2022-10-28T16:39:00.834Z,51.36
2022-10-28T16:44:02.574Z,51.34
2022-10-28T16:49:04.181Z,51.22
2022-10-28T16:54:05.841Z,51.55
2022-10-28T16:59:07.697Z,51.46
2022-10-28T17:04:10.513Z,51.67
2022-10-28T17:09:12.191Z,52.04
2022-10-28T17:14:15.317Z,51.68
2022-10-28T17:19:17.160Z,52.06
2022-10-28T17:24:20.595Z,51.93
2022-10-28T17:29:22.433Z,51.88
2022-10-28T17:34:24.026Z,52.17
2022-10-28T17:39:26.616Z,52.15
2022-10-28T17:44:29.613Z,52.18
2022-10-28T17:49:34.776Z,52.57
2022-10-28T17:54:38.305Z,52.51
2022-10-28T17:59:40.775Z,52.40
2022-10-28T18:04:45.467Z,52.46
2022-10-28T18:09:47.298Z,52.56
2022-10-28T18:14:51.209Z,52.68
2022-10-28T18:19:53.035Z,52.47
2022-10-28T18:24:57.328Z,52.67
2022-10-28T18:30:01.130Z,52.56
2022-10-28T18:35:03.893Z,52.91
2022-10-28T18:40:10.650Z,52.63
2022-10-28T18:45:13.638Z,52.77
2022-10-28T18:50:17.163Z,52.94
2022-10-28T18:55:21.832Z,52.81
2022-10-28T19:00:23.613Z,52.65
2022-10-28T19:05:26.302Z,52.89
2022-10-28T19:10:29.173Z,52.70
2022-10-28T19:15:32.378Z,52.78
2022-10-28T19:20:35.899Z,53.01
2022-10-28T19:25:39.415Z,53.18
2022-10-28T19:30:41.231Z,52.83
2022-10-28T19:35:42.966Z,52.62
2022-10-28T19:40:44.685Z,52.94
2022-10-28T19:45:46.881Z,52.98
2022-10-28T19:50:49.807Z,52.94
2022-10-28T19:55:59.014Z,52.92
2022-10-28T20:01:04.611Z,52.94
2022-10-28T20:06:10.169Z,52.99
2022-10-28T20:11:21.444Z,53.25
2022-10-28T20:16:30.573Z,53.10
2022-10-28T20:21:35.441Z,53.25
2022-10-28T20:26:40.515Z,53.26
2022-10-28T20:31:43.404Z,53.46
2022-10-28T20:36:45.606Z,53.36
2022-10-28T20:41:49.303Z,53.49
2022-10-28T20:46:52.549Z,53.41
2022-10-28T20:51:55.801Z,53.42
2022-10-28T20:56:58.161Z,53.58
2022-10-28T21:02:01.176Z,53.47
2022-10-28T21:07:08.689Z,53.57
2022-10-28T21:12:10.378Z,53.87
2022-10-28T21:17:12.378Z,53.68
2022-10-28T21:22:15.679Z,53.82
2022-10-28T21:27:18.346Z,53.82
2022-10-28T21:32:20.034Z,53.86
2022-10-28T21:37:22.978Z,53.97
2022-10-28T21:42:27.046Z,53.88
2022-10-28T21:47:29.042Z,53.94
2022-10-28T21:52:31.146Z,54.02
2022-10-28T21:57:34.031Z,53.80
2022-10-28T22:02:36.246Z,53.99
2022-10-28T22:07:39.300Z,53.47
2022-10-28T22:12:42.265Z,53.63
2022-10-28T22:17:45.832Z,53.15
2022-10-28T22:22:47.716Z,53.17
2022-10-28T22:27:50.894Z,53.18
2022-10-28T22:32:56.754Z,53.03
2022-10-28T22:38:00.057Z,53.05
2022-10-28T22:43:01.774Z,52.86
2022-10-28T22:48:03.945Z,53.16
2022-10-28T22:53:06.047Z,53.00
2022-10-28T22:58:07.785Z,52.78
2022-10-28T23:03:11.590Z,52.89
2022-10-28T23:08:16.491Z,52.80
2022-10-28T23:13:21.894Z,52.77
2022-10-28T23:18:31.655Z,52.75
2022-10-28T23:23:37.294Z,52.77
2022-10-28T23:28:41.222Z,52.80
2022-10-28T23:33:46.610Z,52.98
2022-10-28T23:38:49.630Z,53.30
2022-10-28T23:43:51.509Z,53.00
2022-10-28T23:48:53.436Z,53.21
2022-10-28T23:53:55.109Z,53.16
2022-10-28T23:58:59.101Z,53.22
